sensor_id;sensor_type;location;lat;lon;timestamp;P1;durP1;ratioP1;P2;durP2;ratioP2
6131;SDS011;3097;42.692;23.278;2023-11-19T00:00:06;4.47;;;4.17;;
6131;SDS011;3097;42.692;23.278;2023-11-19T00:02:37;3.90;;;3.50;;
6131;SDS011;3097;42.692;23.278;2023-11-19T00:05:03;8.13;;;4.47;;
6131;SDS011;3097;42.692;23.278;2023-11-19T00:07:29;4.50;;;3.80;;
6131;SDS011;3097;42.692;23.278;2023-11-19T00:09:54;4.90;;;4.53;;
6131;SDS011;3097;42.692;23.278;2023-11-19T00:12:20;4.40;;;3.87;;
6131;SDS011;3097;42.692;23.278;2023-11-19T00:14:45;3.80;;;3.50;;
6131;SDS011;3097;42.692;23.278;2023-11-19T00:17:11;4.40;;;4.00;;
6131;SDS011;3097;42.692;23.278;2023-11-19T00:19:37;4.43;;;3.87;;
6131;SDS011;3097;42.692;23.278;2023-11-19T00:22:02;4.10;;;3.70;;
6131;SDS011;3097;42.692;23.278;2023-11-19T00:24:29;4.07;;;3.77;;
6131;SDS011;3097;42.692;23.278;2023-11-19T00:26:55;4.80;;;4.40;;
6131;SDS011;3097;42.692;23.278;2023-11-19T00:29:21;4.37;;;4.07;;
6131;SDS011;3097;42.692;23.278;2023-11-19T00:31:47;4.33;;;3.93;;
6131;SDS011;3097;42.692;23.278;2023-11-19T00:34:13;4.00;;;3.70;;
6131;SDS011;3097;42.692;23.278;2023-11-19T00:36:39;3.90;;;3.60;;
6131;SDS011;3097;42.692;23.278;2023-11-19T00:39:04;4.07;;;3.77;;
6131;SDS011;3097;42.692;23.278;2023-11-19T00:41:30;4.83;;;4.40;;
6131;SDS011;3097;42.692;23.278;2023-11-19T00:43:56;4.43;;;4.10;;
6131;SDS011;3097;42.692;23.278;2023-11-19T00:46:21;4.13;;;3.83;;
6131;SDS011;3097;42.692;23.278;2023-11-19T00:48:47;3.97;;;3.67;;
6131;SDS011;3097;42.692;23.278;2023-11-19T00:51:12;4.20;;;3.90;;
6131;SDS011;3097;42.692;23.278;2023-11-19T00:53:38;4.00;;;3.53;;
6131;SDS011;3097;42.692;23.278;2023-11-19T00:56:04;5.10;;;4.60;;
6131;SDS011;3097;42.692;23.278;2023-11-19T00:58:29;4.47;;;4.07;;
6131;SDS011;3097;42.692;23.278;2023-11-19T01:00:55;4.10;;;3.80;;
6131;SDS011;3097;42.692;23.278;2023-11-19T01:03:22;3.97;;;3.67;;
6131;SDS011;3097;42.692;23.278;2023-11-19T01:05:48;4.60;;;4.20;;
6131;SDS011;3097;42.692;23.278;2023-11-19T01:08:13;4.47;;;4.10;;
6131;SDS011;3097;42.692;23.278;2023-11-19T01:10:39;3.60;;;3.30;;
6131;SDS011;3097;42.692;23.278;2023-11-19T01:13:05;3.80;;;3.50;;
6131;SDS011;3097;42.692;23.278;2023-11-19T01:15:33;4.43;;;4.03;;
6131;SDS011;3097;42.692;23.278;2023-11-19T01:17:59;4.10;;;3.70;;
6131;SDS011;3097;42.692;23.278;2023-11-19T01:20:25;3.87;;;3.57;;
6131;SDS011;3097;42.692;23.278;2023-11-19T01:22:51;3.80;;;3.50;;
6131;SDS011;3097;42.692;23.278;2023-11-19T01:25:17;3.93;;;3.63;;
6131;SDS011;3097;42.692;23.278;2023-11-19T01:27:42;3.23;;;2.93;;
6131;SDS011;3097;42.692;23.278;2023-11-19T01:30:09;3.40;;;3.10;;
6131;SDS011;3097;42.692;23.278;2023-11-19T01:32:38;3.90;;;3.50;;
6131;SDS011;3097;42.692;23.278;2023-11-19T01:35:04;3.57;;;3.27;;
6131;SDS011;3097;42.692;23.278;2023-11-19T01:37:29;3.60;;;3.30;;
6131;SDS011;3097;42.692;23.278;2023-11-19T01:39:56;4.47;;;4.07;;
6131;SDS011;3097;42.692;23.278;2023-11-19T01:42:22;3.00;;;2.80;;
6131;SDS011;3097;42.692;23.278;2023-11-19T01:44:59;3.97;;;3.67;;
6131;SDS011;3097;42.692;23.278;2023-11-19T01:47:26;4.10;;;3.70;;
6131;SDS011;3097;42.692;23.278;2023-11-19T01:49:53;3.80;;;3.50;;
6131;SDS011;3097;42.692;23.278;2023-11-19T01:52:19;3.30;;;3.10;;
6131;SDS011;3097;42.692;23.278;2023-11-19T01:54:45;3.80;;;3.50;;
6131;SDS011;3097;42.692;23.278;2023-11-19T01:57:12;3.80;;;3.50;;
6131;SDS011;3097;42.692;23.278;2023-11-19T01:59:39;3.60;;;3.40;;
6131;SDS011;3097;42.692;23.278;2023-11-19T02:02:05;3.97;;;3.67;;
6131;SDS011;3097;42.692;23.278;2023-11-19T02:04:31;4.03;;;3.73;;
6131;SDS011;3097;42.692;23.278;2023-11-19T02:06:57;4.17;;;3.80;;
6131;SDS011;3097;42.692;23.278;2023-11-19T02:09:24;4.00;;;3.70;;
6131;SDS011;3097;42.692;23.278;2023-11-19T02:11:49;3.80;;;3.50;;
6131;SDS011;3097;42.692;23.278;2023-11-19T02:14:19;3.30;;;3.10;;
6131;SDS011;3097;42.692;23.278;2023-11-19T02:16:50;3.40;;;3.10;;
6131;SDS011;3097;42.692;23.278;2023-11-19T02:19:20;3.70;;;3.40;;
6131;SDS011;3097;42.692;23.278;2023-11-19T02:21:45;3.50;;;3.27;;
6131;SDS011;3097;42.692;23.278;2023-11-19T02:24:11;3.97;;;3.67;;
6131;SDS011;3097;42.692;23.278;2023-11-19T02:26:40;3.53;;;3.23;;
6131;SDS011;3097;42.692;23.278;2023-11-19T02:29:16;4.30;;;3.93;;
6131;SDS011;3097;42.692;23.278;2023-11-19T02:31:42;4.63;;;4.23;;
6131;SDS011;3097;42.692;23.278;2023-11-19T02:34:10;4.20;;;3.90;;
6131;SDS011;3097;42.692;23.278;2023-11-19T02:36:37;4.30;;;4.00;;
6131;SDS011;3097;42.692;23.278;2023-11-19T02:39:03;3.70;;;3.40;;
6131;SDS011;3097;42.692;23.278;2023-11-19T02:41:28;3.47;;;3.23;;
6131;SDS011;3097;42.692;23.278;2023-11-19T02:43:54;4.73;;;4.07;;
6131;SDS011;3097;42.692;23.278;2023-11-19T02:46:19;3.90;;;3.60;;
6131;SDS011;3097;42.692;23.278;2023-11-19T02:48:45;4.20;;;3.90;;
6131;SDS011;3097;42.692;23.278;2023-11-19T02:51:11;4.13;;;3.83;;
6131;SDS011;3097;42.692;23.278;2023-11-19T02:53:37;3.50;;;3.20;;
6131;SDS011;3097;42.692;23.278;2023-11-19T02:56:04;4.40;;;4.00;;
6131;SDS011;3097;42.692;23.278;2023-11-19T02:58:44;3.90;;;3.57;;
6131;SDS011;3097;42.692;23.278;2023-11-19T03:01:11;3.97;;;3.60;;
6131;SDS011;3097;42.692;23.278;2023-11-19T03:03:48;4.03;;;3.23;;
6131;SDS011;3097;42.692;23.278;2023-11-19T03:06:19;3.37;;;3.17;;
6131;SDS011;3097;42.692;23.278;2023-11-19T03:08:46;3.47;;;3.23;;
6131;SDS011;3097;42.692;23.278;2023-11-19T03:11:11;4.13;;;3.83;;
6131;SDS011;3097;42.692;23.278;2023-11-19T03:13:36;3.00;;;2.80;;
6131;SDS011;3097;42.692;23.278;2023-11-19T03:16:02;2.90;;;2.70;;
6131;SDS011;3097;42.692;23.278;2023-11-19T03:18:27;3.60;;;3.30;;
6131;SDS011;3097;42.692;23.278;2023-11-19T03:20:53;3.77;;;3.10;;
6131;SDS011;3097;42.692;23.278;2023-11-19T03:23:19;3.90;;;3.50;;
6131;SDS011;3097;42.692;23.278;2023-11-19T03:25:44;3.70;;;3.40;;
6131;SDS011;3097;42.692;23.278;2023-11-19T03:28:10;4.40;;;4.00;;
6131;SDS011;3097;42.692;23.278;2023-11-19T03:30:36;4.10;;;3.80;;
6131;SDS011;3097;42.692;23.278;2023-11-19T03:33:01;3.93;;;3.63;;
6131;SDS011;3097;42.692;23.278;2023-11-19T03:35:27;6.63;;;5.00;;
6131;SDS011;3097;42.692;23.278;2023-11-19T03:37:53;4.07;;;3.77;;
6131;SDS011;3097;42.692;23.278;2023-11-19T03:40:19;4.40;;;4.00;;
6131;SDS011;3097;42.692;23.278;2023-11-19T03:42:47;3.70;;;3.40;;
6131;SDS011;3097;42.692;23.278;2023-11-19T03:45:13;5.17;;;3.93;;
6131;SDS011;3097;42.692;23.278;2023-11-19T03:47:40;3.37;;;3.07;;
6131;SDS011;3097;42.692;23.278;2023-11-19T03:50:06;4.47;;;3.77;;
6131;SDS011;3097;42.692;23.278;2023-11-19T03:52:35;4.73;;;4.33;;
6131;SDS011;3097;42.692;23.278;2023-11-19T03:55:01;4.10;;;3.70;;
6131;SDS011;3097;42.692;23.278;2023-11-19T03:57:28;4.20;;;3.90;;
6131;SDS011;3097;42.692;23.278;2023-11-19T03:59:53;3.70;;;3.40;;
6131;SDS011;3097;42.692;23.278;2023-11-19T04:02:20;3.63;;;3.00;;
6131;SDS011;3097;42.692;23.278;2023-11-19T04:04:46;3.23;;;3.03;;
6131;SDS011;3097;42.692;23.278;2023-11-19T04:07:12;4.00;;;3.70;;
6131;SDS011;3097;42.692;23.278;2023-11-19T04:09:37;3.63;;;3.33;;
6131;SDS011;3097;42.692;23.278;2023-11-19T04:12:03;3.40;;;3.10;;
6131;SDS011;3097;42.692;23.278;2023-11-19T04:14:28;3.60;;;3.30;;
6131;SDS011;3097;42.692;23.278;2023-11-19T04:16:54;3.63;;;3.33;;
6131;SDS011;3097;42.692;23.278;2023-11-19T04:19:20;3.43;;;3.13;;
6131;SDS011;3097;42.692;23.278;2023-11-19T04:21:45;3.57;;;3.27;;
6131;SDS011;3097;42.692;23.278;2023-11-19T04:24:11;4.03;;;3.67;;
6131;SDS011;3097;42.692;23.278;2023-11-19T04:26:44;4.03;;;3.70;;
6131;SDS011;3097;42.692;23.278;2023-11-19T04:29:14;4.23;;;3.93;;
6131;SDS011;3097;42.692;23.278;2023-11-19T04:31:42;21.40;;;12.27;;
6131;SDS011;3097;42.692;23.278;2023-11-19T04:34:09;5.07;;;4.60;;
6131;SDS011;3097;42.692;23.278;2023-11-19T04:36:36;5.70;;;4.60;;
6131;SDS011;3097;42.692;23.278;2023-11-19T04:39:02;5.17;;;4.00;;
6131;SDS011;3097;42.692;23.278;2023-11-19T04:41:34;4.20;;;3.30;;
6131;SDS011;3097;42.692;23.278;2023-11-19T04:44:01;5.50;;;4.87;;
6131;SDS011;3097;42.692;23.278;2023-11-19T04:46:27;5.27;;;4.13;;
6131;SDS011;3097;42.692;23.278;2023-11-19T04:48:52;5.13;;;4.63;;
6131;SDS011;3097;42.692;23.278;2023-11-19T04:51:17;4.90;;;4.40;;
6131;SDS011;3097;42.692;23.278;2023-11-19T04:53:43;7.50;;;6.20;;
6131;SDS011;3097;42.692;23.278;2023-11-19T04:56:09;6.67;;;5.07;;
6131;SDS011;3097;42.692;23.278;2023-11-19T04:58:38;5.00;;;4.50;;
6131;SDS011;3097;42.692;23.278;2023-11-19T05:01:04;4.50;;;3.63;;
6131;SDS011;3097;42.692;23.278;2023-11-19T05:03:30;5.30;;;4.80;;
6131;SDS011;3097;42.692;23.278;2023-11-19T05:05:56;4.57;;;4.13;;
6131;SDS011;3097;42.692;23.278;2023-11-19T05:08:22;6.37;;;4.93;;
6131;SDS011;3097;42.692;23.278;2023-11-19T05:10:48;7.03;;;5.30;;
6131;SDS011;3097;42.692;23.278;2023-11-19T05:13:13;5.63;;;4.73;;
6131;SDS011;3097;42.692;23.278;2023-11-19T05:15:40;4.53;;;4.07;;
6131;SDS011;3097;42.692;23.278;2023-11-19T05:18:06;5.17;;;4.20;;
6131;SDS011;3097;42.692;23.278;2023-11-19T05:20:31;5.03;;;4.50;;
6131;SDS011;3097;42.692;23.278;2023-11-19T05:22:57;5.63;;;4.83;;
6131;SDS011;3097;42.692;23.278;2023-11-19T05:25:25;5.10;;;4.53;;
6131;SDS011;3097;42.692;23.278;2023-11-19T05:27:52;5.20;;;4.27;;
6131;SDS011;3097;42.692;23.278;2023-11-19T05:30:17;7.83;;;5.37;;
6131;SDS011;3097;42.692;23.278;2023-11-19T05:32:43;5.90;;;5.30;;
6131;SDS011;3097;42.692;23.278;2023-11-19T05:35:08;6.60;;;5.70;;
6131;SDS011;3097;42.692;23.278;2023-11-19T05:37:34;5.87;;;5.33;;
6131;SDS011;3097;42.692;23.278;2023-11-19T05:40:00;12.60;;;9.33;;
6131;SDS011;3097;42.692;23.278;2023-11-19T05:42:28;7.43;;;5.37;;
6131;SDS011;3097;42.692;23.278;2023-11-19T05:44:53;6.97;;;5.60;;
6131;SDS011;3097;42.692;23.278;2023-11-19T05:47:19;6.03;;;5.10;;
6131;SDS011;3097;42.692;23.278;2023-11-19T05:49:44;7.03;;;5.40;;
6131;SDS011;3097;42.692;23.278;2023-11-19T05:52:10;10.93;;;6.83;;
6131;SDS011;3097;42.692;23.278;2023-11-19T05:54:37;6.73;;;5.40;;
6131;SDS011;3097;42.692;23.278;2023-11-19T05:57:06;4.77;;;4.37;;
6131;SDS011;3097;42.692;23.278;2023-11-19T05:59:34;4.80;;;4.13;;
6131;SDS011;3097;42.692;23.278;2023-11-19T06:02:01;6.83;;;5.60;;
6131;SDS011;3097;42.692;23.278;2023-11-19T06:04:27;7.30;;;5.53;;
6131;SDS011;3097;42.692;23.278;2023-11-19T06:06:53;6.30;;;5.70;;
6131;SDS011;3097;42.692;23.278;2023-11-19T06:09:20;4.77;;;4.27;;
6131;SDS011;3097;42.692;23.278;2023-11-19T06:11:48;6.07;;;5.10;;
6131;SDS011;3097;42.692;23.278;2023-11-19T06:14:14;5.83;;;4.40;;
6131;SDS011;3097;42.692;23.278;2023-11-19T06:16:39;4.63;;;4.23;;
6131;SDS011;3097;42.692;23.278;2023-11-19T06:19:05;5.20;;;4.67;;
6131;SDS011;3097;42.692;23.278;2023-11-19T06:21:30;9.90;;;6.33;;
6131;SDS011;3097;42.692;23.278;2023-11-19T06:23:55;5.93;;;5.33;;
6131;SDS011;3097;42.692;23.278;2023-11-19T06:26:21;6.17;;;5.47;;
6131;SDS011;3097;42.692;23.278;2023-11-19T06:28:47;7.80;;;6.20;;
6131;SDS011;3097;42.692;23.278;2023-11-19T06:31:12;7.73;;;6.47;;
6131;SDS011;3097;42.692;23.278;2023-11-19T06:33:41;7.73;;;6.00;;
6131;SDS011;3097;42.692;23.278;2023-11-19T06:36:07;6.57;;;5.40;;
6131;SDS011;3097;42.692;23.278;2023-11-19T06:38:34;5.97;;;5.23;;
6131;SDS011;3097;42.692;23.278;2023-11-19T06:41:00;6.50;;;5.80;;
6131;SDS011;3097;42.692;23.278;2023-11-19T06:43:26;9.73;;;6.17;;
6131;SDS011;3097;42.692;23.278;2023-11-19T06:45:53;12.93;;;8.23;;
6131;SDS011;3097;42.692;23.278;2023-11-19T06:48:19;7.93;;;6.23;;
6131;SDS011;3097;42.692;23.278;2023-11-19T06:50:45;10.10;;;6.53;;
6131;SDS011;3097;42.692;23.278;2023-11-19T06:53:10;10.93;;;7.00;;
6131;SDS011;3097;42.692;23.278;2023-11-19T06:55:35;9.13;;;6.30;;
6131;SDS011;3097;42.692;23.278;2023-11-19T06:58:01;10.13;;;7.03;;
6131;SDS011;3097;42.692;23.278;2023-11-19T07:00:28;9.63;;;5.33;;
6131;SDS011;3097;42.692;23.278;2023-11-19T07:02:54;5.87;;;4.80;;
6131;SDS011;3097;42.692;23.278;2023-11-19T07:05:20;7.50;;;5.87;;
6131;SDS011;3097;42.692;23.278;2023-11-19T07:07:46;7.93;;;6.03;;
6131;SDS011;3097;42.692;23.278;2023-11-19T07:10:12;5.83;;;5.23;;
6131;SDS011;3097;42.692;23.278;2023-11-19T07:12:37;8.03;;;5.17;;
6131;SDS011;3097;42.692;23.278;2023-11-19T07:15:04;7.57;;;5.70;;
6131;SDS011;3097;42.692;23.278;2023-11-19T07:17:34;8.67;;;6.30;;
6131;SDS011;3097;42.692;23.278;2023-11-19T07:20:00;9.07;;;6.40;;
6131;SDS011;3097;42.692;23.278;2023-11-19T07:22:26;11.90;;;7.23;;
6131;SDS011;3097;42.692;23.278;2023-11-19T07:24:51;9.87;;;6.97;;
6131;SDS011;3097;42.692;23.278;2023-11-19T07:27:18;8.47;;;5.87;;
6131;SDS011;3097;42.692;23.278;2023-11-19T07:29:44;11.97;;;6.67;;
6131;SDS011;3097;42.692;23.278;2023-11-19T07:32:10;20.10;;;10.97;;
6131;SDS011;3097;42.692;23.278;2023-11-19T07:34:36;8.07;;;6.53;;
6131;SDS011;3097;42.692;23.278;2023-11-19T07:37:01;14.33;;;8.60;;
6131;SDS011;3097;42.692;23.278;2023-11-19T07:39:28;5.97;;;5.20;;
6131;SDS011;3097;42.692;23.278;2023-11-19T07:41:57;8.73;;;5.00;;
6131;SDS011;3097;42.692;23.278;2023-11-19T07:44:22;6.00;;;5.33;;
6131;SDS011;3097;42.692;23.278;2023-11-19T07:46:47;6.27;;;5.00;;
6131;SDS011;3097;42.692;23.278;2023-11-19T07:49:13;3.77;;;3.37;;
6131;SDS011;3097;42.692;23.278;2023-11-19T07:51:39;5.07;;;4.53;;
6131;SDS011;3097;42.692;23.278;2023-11-19T07:54:05;4.60;;;4.00;;
6131;SDS011;3097;42.692;23.278;2023-11-19T07:56:31;6.00;;;5.30;;
6131;SDS011;3097;42.692;23.278;2023-11-19T07:58:59;5.97;;;5.37;;
6131;SDS011;3097;42.692;23.278;2023-11-19T08:01:25;8.30;;;5.67;;
6131;SDS011;3097;42.692;23.278;2023-11-19T08:03:50;8.57;;;6.00;;
6131;SDS011;3097;42.692;23.278;2023-11-19T08:06:16;7.63;;;5.53;;
6131;SDS011;3097;42.692;23.278;2023-11-19T08:08:41;6.83;;;6.00;;
6131;SDS011;3097;42.692;23.278;2023-11-19T08:11:07;8.07;;;6.20;;
6131;SDS011;3097;42.692;23.278;2023-11-19T08:13:33;7.40;;;5.40;;
6131;SDS011;3097;42.692;23.278;2023-11-19T08:15:59;10.77;;;6.23;;
6131;SDS011;3097;42.692;23.278;2023-11-19T08:18:24;11.30;;;6.97;;
6131;SDS011;3097;42.692;23.278;2023-11-19T08:20:50;7.57;;;6.20;;
6131;SDS011;3097;42.692;23.278;2023-11-19T08:23:18;10.97;;;7.77;;
6131;SDS011;3097;42.692;23.278;2023-11-19T08:25:44;11.27;;;7.53;;
6131;SDS011;3097;42.692;23.278;2023-11-19T08:28:10;11.67;;;8.13;;
6131;SDS011;3097;42.692;23.278;2023-11-19T08:30:36;21.30;;;10.67;;
6131;SDS011;3097;42.692;23.278;2023-11-19T08:33:01;10.37;;;7.40;;
6131;SDS011;3097;42.692;23.278;2023-11-19T08:35:31;11.57;;;7.33;;
6131;SDS011;3097;42.692;23.278;2023-11-19T08:37:58;11.80;;;7.83;;
6131;SDS011;3097;42.692;23.278;2023-11-19T08:40:24;10.87;;;7.63;;
6131;SDS011;3097;42.692;23.278;2023-11-19T08:42:51;5.87;;;4.97;;
6131;SDS011;3097;42.692;23.278;2023-11-19T08:45:16;7.70;;;6.13;;
6131;SDS011;3097;42.692;23.278;2023-11-19T08:47:42;8.67;;;6.63;;
6131;SDS011;3097;42.692;23.278;2023-11-19T08:50:07;7.57;;;5.73;;
6131;SDS011;3097;42.692;23.278;2023-11-19T08:52:33;9.10;;;6.23;;
6131;SDS011;3097;42.692;23.278;2023-11-19T08:54:59;7.50;;;6.20;;
6131;SDS011;3097;42.692;23.278;2023-11-19T08:57:25;5.93;;;5.33;;
6131;SDS011;3097;42.692;23.278;2023-11-19T08:59:50;7.40;;;5.93;;
6131;SDS011;3097;42.692;23.278;2023-11-19T09:02:16;35.00;;;16.70;;
6131;SDS011;3097;42.692;23.278;2023-11-19T09:04:41;15.60;;;9.63;;
6131;SDS011;3097;42.692;23.278;2023-11-19T09:07:07;30.70;;;15.83;;
6131;SDS011;3097;42.692;23.278;2023-11-19T09:09:34;10.30;;;7.50;;
6131;SDS011;3097;42.692;23.278;2023-11-19T09:12:01;12.23;;;9.03;;
6131;SDS011;3097;42.692;23.278;2023-11-19T09:14:26;8.97;;;6.73;;
6131;SDS011;3097;42.692;23.278;2023-11-19T09:16:52;6.97;;;5.60;;
6131;SDS011;3097;42.692;23.278;2023-11-19T09:19:18;9.63;;;7.33;;
6131;SDS011;3097;42.692;23.278;2023-11-19T09:21:43;12.67;;;7.60;;
6131;SDS011;3097;42.692;23.278;2023-11-19T09:24:09;7.90;;;5.43;;
6131;SDS011;3097;42.692;23.278;2023-11-19T09:26:34;5.80;;;5.10;;
6131;SDS011;3097;42.692;23.278;2023-11-19T09:29:01;9.50;;;6.70;;
6131;SDS011;3097;42.692;23.278;2023-11-19T09:31:27;7.37;;;5.77;;
6131;SDS011;3097;42.692;23.278;2023-11-19T09:33:52;6.90;;;5.23;;
6131;SDS011;3097;42.692;23.278;2023-11-19T09:36:17;9.20;;;6.63;;
6131;SDS011;3097;42.692;23.278;2023-11-19T09:38:44;11.20;;;6.33;;
6131;SDS011;3097;42.692;23.278;2023-11-19T09:41:09;10.13;;;6.93;;
6131;SDS011;3097;42.692;23.278;2023-11-19T09:43:37;7.90;;;5.47;;
6131;SDS011;3097;42.692;23.278;2023-11-19T09:46:06;4.87;;;3.97;;
6131;SDS011;3097;42.692;23.278;2023-11-19T09:48:35;6.87;;;6.07;;
6131;SDS011;3097;42.692;23.278;2023-11-19T09:51:05;8.20;;;6.10;;
6131;SDS011;3097;42.692;23.278;2023-11-19T09:53:32;9.20;;;6.80;;
6131;SDS011;3097;42.692;23.278;2023-11-19T09:56:04;5.90;;;5.30;;
6131;SDS011;3097;42.692;23.278;2023-11-19T09:58:31;8.40;;;6.73;;
6131;SDS011;3097;42.692;23.278;2023-11-19T10:00:57;9.20;;;6.40;;
6131;SDS011;3097;42.692;23.278;2023-11-19T10:03:30;7.60;;;6.23;;
6131;SDS011;3097;42.692;23.278;2023-11-19T10:05:58;8.00;;;6.07;;
6131;SDS011;3097;42.692;23.278;2023-11-19T10:08:26;9.97;;;6.97;;
6131;SDS011;3097;42.692;23.278;2023-11-19T10:10:51;12.47;;;7.37;;
6131;SDS011;3097;42.692;23.278;2023-11-19T10:13:17;11.80;;;7.17;;
6131;SDS011;3097;42.692;23.278;2023-11-19T10:15:43;12.63;;;6.60;;
6131;SDS011;3097;42.692;23.278;2023-11-19T10:18:09;10.77;;;7.27;;
6131;SDS011;3097;42.692;23.278;2023-11-19T10:20:36;7.37;;;6.37;;
6131;SDS011;3097;42.692;23.278;2023-11-19T10:23:02;7.03;;;5.60;;
6131;SDS011;3097;42.692;23.278;2023-11-19T10:25:30;6.33;;;5.67;;
6131;SDS011;3097;42.692;23.278;2023-11-19T10:27:58;9.63;;;6.87;;
6131;SDS011;3097;42.692;23.278;2023-11-19T10:30:25;8.97;;;6.63;;
6131;SDS011;3097;42.692;23.278;2023-11-19T10:35:34;7.73;;;6.90;;
6131;SDS011;3097;42.692;23.278;2023-11-19T10:38:01;9.57;;;6.40;;
6131;SDS011;3097;42.692;23.278;2023-11-19T10:40:39;9.27;;;6.87;;
6131;SDS011;3097;42.692;23.278;2023-11-19T10:43:05;13.27;;;6.83;;
6131;SDS011;3097;42.692;23.278;2023-11-19T10:45:33;6.33;;;5.20;;
6131;SDS011;3097;42.692;23.278;2023-11-19T10:47:59;8.33;;;6.60;;
6131;SDS011;3097;42.692;23.278;2023-11-19T10:50:25;8.77;;;6.20;;
6131;SDS011;3097;42.692;23.278;2023-11-19T10:52:56;8.87;;;6.43;;
6131;SDS011;3097;42.692;23.278;2023-11-19T10:55:29;10.53;;;6.60;;
6131;SDS011;3097;42.692;23.278;2023-11-19T10:58:03;6.63;;;5.47;;
6131;SDS011;3097;42.692;23.278;2023-11-19T11:00:43;8.13;;;6.67;;
6131;SDS011;3097;42.692;23.278;2023-11-19T11:03:17;8.07;;;5.73;;
6131;SDS011;3097;42.692;23.278;2023-11-19T11:05:47;11.37;;;6.63;;
6131;SDS011;3097;42.692;23.278;2023-11-19T11:08:13;5.53;;;4.97;;
6131;SDS011;3097;42.692;23.278;2023-11-19T11:10:42;5.77;;;4.27;;
6131;SDS011;3097;42.692;23.278;2023-11-19T11:13:09;7.07;;;5.30;;
6131;SDS011;3097;42.692;23.278;2023-11-19T11:15:37;6.23;;;4.90;;
6131;SDS011;3097;42.692;23.278;2023-11-19T11:18:03;7.37;;;5.60;;
6131;SDS011;3097;42.692;23.278;2023-11-19T11:20:33;5.20;;;4.60;;
6131;SDS011;3097;42.692;23.278;2023-11-19T11:31:09;4.97;;;4.50;;
6131;SDS011;3097;42.692;23.278;2023-11-19T11:33:47;4.70;;;4.30;;
6131;SDS011;3097;42.692;23.278;2023-11-19T11:36:29;5.00;;;4.20;;
6131;SDS011;3097;42.692;23.278;2023-11-19T11:38:57;5.40;;;4.63;;
6131;SDS011;3097;42.692;23.278;2023-11-19T11:41:25;5.67;;;5.00;;
6131;SDS011;3097;42.692;23.278;2023-11-19T11:43:51;4.20;;;3.90;;
6131;SDS011;3097;42.692;23.278;2023-11-19T11:49:07;6.40;;;4.57;;
6131;SDS011;3097;42.692;23.278;2023-11-19T11:54:30;10.87;;;5.97;;
6131;SDS011;3097;42.692;23.278;2023-11-19T11:59:42;5.17;;;3.80;;
6131;SDS011;3097;42.692;23.278;2023-11-19T12:02:09;5.97;;;4.90;;
6131;SDS011;3097;42.692;23.278;2023-11-19T12:04:35;4.67;;;3.77;;
6131;SDS011;3097;42.692;23.278;2023-11-19T12:07:05;4.27;;;3.63;;
6131;SDS011;3097;42.692;23.278;2023-11-19T12:09:32;6.47;;;4.40;;
6131;SDS011;3097;42.692;23.278;2023-11-19T12:19:59;6.03;;;4.20;;
6131;SDS011;3097;42.692;23.278;2023-11-19T12:22:30;4.23;;;3.93;;
6131;SDS011;3097;42.692;23.278;2023-11-19T12:24:56;11.73;;;4.67;;
6131;SDS011;3097;42.692;23.278;2023-11-19T12:27:21;5.43;;;3.80;;
6131;SDS011;3097;42.692;23.278;2023-11-19T12:29:48;5.43;;;4.70;;
6131;SDS011;3097;42.692;23.278;2023-11-19T12:32:14;7.80;;;5.97;;
6131;SDS011;3097;42.692;23.278;2023-11-19T12:34:39;5.57;;;5.07;;
6131;SDS011;3097;42.692;23.278;2023-11-19T12:37:05;4.63;;;4.23;;
6131;SDS011;3097;42.692;23.278;2023-11-19T12:39:31;6.30;;;5.67;;
6131;SDS011;3097;42.692;23.278;2023-11-19T12:41:56;7.03;;;6.33;;
6131;SDS011;3097;42.692;23.278;2023-11-19T12:44:26;6.70;;;5.20;;
6131;SDS011;3097;42.692;23.278;2023-11-19T12:46:59;4.57;;;4.17;;
6131;SDS011;3097;42.692;23.278;2023-11-19T12:49:28;10.10;;;7.43;;
6131;SDS011;3097;42.692;23.278;2023-11-19T12:51:53;24.37;;;11.60;;
6131;SDS011;3097;42.692;23.278;2023-11-19T12:54:19;10.37;;;4.87;;
6131;SDS011;3097;42.692;23.278;2023-11-19T12:56:53;5.20;;;4.70;;
6131;SDS011;3097;42.692;23.278;2023-11-19T12:59:19;7.50;;;5.03;;
6131;SDS011;3097;42.692;23.278;2023-11-19T13:01:54;7.43;;;5.20;;
6131;SDS011;3097;42.692;23.278;2023-11-19T13:04:20;7.27;;;5.57;;
6131;SDS011;3097;42.692;23.278;2023-11-19T13:06:46;9.23;;;6.27;;
6131;SDS011;3097;42.692;23.278;2023-11-19T13:09:21;6.83;;;6.13;;
6131;SDS011;3097;42.692;23.278;2023-11-19T13:11:51;12.03;;;7.40;;
6131;SDS011;3097;42.692;23.278;2023-11-19T13:14:17;6.70;;;6.10;;
6131;SDS011;3097;42.692;23.278;2023-11-19T13:16:43;5.50;;;5.00;;
6131;SDS011;3097;42.692;23.278;2023-11-19T13:19:11;6.53;;;5.57;;
6131;SDS011;3097;42.692;23.278;2023-11-19T13:21:37;5.57;;;5.07;;
6131;SDS011;3097;42.692;23.278;2023-11-19T13:24:05;5.87;;;5.07;;
6131;SDS011;3097;42.692;23.278;2023-11-19T13:26:31;6.07;;;5.13;;
6131;SDS011;3097;42.692;23.278;2023-11-19T13:28:56;6.43;;;4.40;;
6131;SDS011;3097;42.692;23.278;2023-11-19T13:31:22;4.87;;;4.40;;
6131;SDS011;3097;42.692;23.278;2023-11-19T13:33:47;5.30;;;4.80;;
6131;SDS011;3097;42.692;23.278;2023-11-19T13:36:13;4.83;;;4.33;;
6131;SDS011;3097;42.692;23.278;2023-11-19T13:38:39;7.37;;;4.87;;
6131;SDS011;3097;42.692;23.278;2023-11-19T13:41:07;5.23;;;4.73;;
6131;SDS011;3097;42.692;23.278;2023-11-19T13:43:35;10.43;;;6.67;;
6131;SDS011;3097;42.692;23.278;2023-11-19T13:46:00;9.73;;;6.10;;
6131;SDS011;3097;42.692;23.278;2023-11-19T13:48:26;7.13;;;5.50;;
6131;SDS011;3097;42.692;23.278;2023-11-19T13:50:52;6.70;;;5.33;;
6131;SDS011;3097;42.692;23.278;2023-11-19T13:53:18;9.47;;;6.40;;
6131;SDS011;3097;42.692;23.278;2023-11-19T13:55:43;9.80;;;7.40;;
6131;SDS011;3097;42.692;23.278;2023-11-19T13:58:09;8.80;;;6.37;;
6131;SDS011;3097;42.692;23.278;2023-11-19T14:00:35;8.20;;;6.80;;
6131;SDS011;3097;42.692;23.278;2023-11-19T14:03:01;11.30;;;7.00;;
6131;SDS011;3097;42.692;23.278;2023-11-19T14:05:27;7.73;;;5.63;;
6131;SDS011;3097;42.692;23.278;2023-11-19T14:07:53;5.20;;;4.70;;
6131;SDS011;3097;42.692;23.278;2023-11-19T14:10:19;4.83;;;3.73;;
6131;SDS011;3097;42.692;23.278;2023-11-19T14:12:44;5.57;;;4.80;;
6131;SDS011;3097;42.692;23.278;2023-11-19T14:15:10;6.80;;;6.10;;
6131;SDS011;3097;42.692;23.278;2023-11-19T14:17:38;5.83;;;4.60;;
6131;SDS011;3097;42.692;23.278;2023-11-19T14:20:04;5.53;;;4.63;;
6131;SDS011;3097;42.692;23.278;2023-11-19T14:22:41;5.10;;;4.60;;
6131;SDS011;3097;42.692;23.278;2023-11-19T14:25:08;6.30;;;5.63;;
6131;SDS011;3097;42.692;23.278;2023-11-19T14:27:35;9.87;;;6.93;;
6131;SDS011;3097;42.692;23.278;2023-11-19T14:30:03;9.20;;;7.33;;
6131;SDS011;3097;42.692;23.278;2023-11-19T14:32:33;10.33;;;6.77;;
6131;SDS011;3097;42.692;23.278;2023-11-19T14:34:59;13.53;;;9.03;;
6131;SDS011;3097;42.692;23.278;2023-11-19T14:37:24;9.47;;;6.87;;
6131;SDS011;3097;42.692;23.278;2023-11-19T14:39:49;14.33;;;7.97;;
6131;SDS011;3097;42.692;23.278;2023-11-19T14:42:16;16.87;;;9.30;;
6131;SDS011;3097;42.692;23.278;2023-11-19T14:44:42;13.27;;;8.37;;
6131;SDS011;3097;42.692;23.278;2023-11-19T14:47:07;14.70;;;9.80;;
6131;SDS011;3097;42.692;23.278;2023-11-19T14:49:36;15.83;;;10.43;;
6131;SDS011;3097;42.692;23.278;2023-11-19T14:52:04;23.57;;;13.27;;
6131;SDS011;3097;42.692;23.278;2023-11-19T14:54:30;23.03;;;13.60;;
6131;SDS011;3097;42.692;23.278;2023-11-19T14:56:56;18.90;;;11.63;;
6131;SDS011;3097;42.692;23.278;2023-11-19T14:59:26;19.00;;;11.07;;
6131;SDS011;3097;42.692;23.278;2023-11-19T15:01:52;12.90;;;8.13;;
6131;SDS011;3097;42.692;23.278;2023-11-19T15:04:17;12.27;;;8.93;;
6131;SDS011;3097;42.692;23.278;2023-11-19T15:06:43;17.50;;;10.20;;
6131;SDS011;3097;42.692;23.278;2023-11-19T15:09:27;23.47;;;12.73;;
6131;SDS011;3097;42.692;23.278;2023-11-19T15:11:55;26.67;;;14.20;;
6131;SDS011;3097;42.692;23.278;2023-11-19T15:14:23;31.87;;;15.70;;
6131;SDS011;3097;42.692;23.278;2023-11-19T15:16:48;32.33;;;16.37;;
6131;SDS011;3097;42.692;23.278;2023-11-19T15:19:16;38.73;;;18.43;;
6131;SDS011;3097;42.692;23.278;2023-11-19T15:21:42;36.73;;;19.13;;